Time;durP1;ratioP1;P1;durP2;ratioP2;P2;SDS_P1;SDS_P2;PMS_P1;PMS_P2;Temp;Humidity;BMP_temperature;BMP_pressure;BME280_temperature;BME280_humidity;BME280_pressure;Samples;Min_cycle;Max_cycle;Signal;HPM_P1;HPM_P2
2021/04/18 00:00:27;;;;;;;19.20;11.40;;;4.40;87.10;;;;;;4959031;28;20066;-76
2021/04/18 00:02:54;;;;;;;17.23;10.43;;;4.40;87.50;;;;;;4976558;28;20033;-76
2021/04/18 00:05:26;;;;;;;16.73;11.48;;;4.40;87.50;;;;;;4958975;28;20019;-76
2021/04/18 00:07:54;;;;;;;18.98;11.13;;;4.40;87.10;;;;;;4959261;28;20027;-76
2021/04/18 00:10:20;;;;;;;16.02;11.95;;;4.40;86.90;;;;;;4976395;28;20082;-76
2021/04/18 00:12:46;;;;;;;20.83;12.18;;;4.40;86.80;;;;;;4958993;28;20072;-77
2021/04/18 00:15:14;;;;;;;18.85;11.18;;;4.40;86.70;;;;;;4959028;28;20053;-76
2021/04/18 00:17:40;;;;;;;18.52;11.77;;;4.40;86.80;;;;;;4958636;28;20256;-76
2021/04/18 00:20:14;;;;;;;22.67;11.55;;;4.40;86.70;;;;;;4943188;28;20488;-77
2021/04/18 00:22:40;;;;;;;19.27;11.93;;;4.50;86.90;;;;;;4958812;28;20038;-76
2021/04/18 00:25:06;;;;;;;17.05;12.38;;;4.50;86.60;;;;;;4958941;28;20073;-76
2021/04/18 00:27:32;;;;;;;20.63;14.18;;;4.40;86.10;;;;;;4958744;28;20019;-76
2021/04/18 00:29:57;;;;;;;21.05;13.52;;;4.40;85.90;;;;;;4958614;28;20118;-76
2021/04/18 00:32:23;;;;;;;18.02;13.10;;;4.40;86.10;;;;;;4975850;28;20019;-76
2021/04/18 00:34:49;;;;;;;22.38;14.32;;;4.40;86.00;;;;;;4958469;28;20129;-76
2021/04/18 00:37:15;;;;;;;22.05;13.05;;;4.40;86.00;;;;;;4958384;28;20126;-76
2021/04/18 00:39:40;;;;;;;19.40;13.25;;;4.40;86.20;;;;;;4958254;28;20026;-76
2021/04/18 00:42:06;;;;;;;21.63;13.82;;;4.40;86.10;;;;;;4958263;28;20034;-76
2021/04/18 00:44:32;;;;;;;21.25;14.35;;;4.40;85.80;;;;;;4958441;28;20061;-76
2021/04/18 00:46:58;;;;;;;21.75;13.88;;;4.50;85.80;;;;;;4975629;28;20029;-76
2021/04/18 00:49:25;;;;;;;21.38;14.38;;;4.50;85.60;;;;;;4956992;28;20117;-76
2021/04/18 00:51:51;;;;;;;21.15;15.43;;;4.50;85.80;;;;;;4958348;28;20035;-76
2021/04/18 00:54:18;;;;;;;20.63;14.18;;;4.50;85.40;;;;;;4926325;28;20043;-76
2021/04/18 00:56:44;;;;;;;23.80;16.75;;;4.50;85.30;;;;;;4975265;28;20038;-76
2021/04/18 00:59:09;;;;;;;21.20;14.60;;;4.50;85.40;;;;;;4957514;28;20031;-76
2021/04/18 01:01:36;;;;;;;22.10;14.27;;;4.50;85.50;;;;;;4957546;28;20485;-75
2021/04/18 01:04:02;;;;;;;22.52;15.30;;;4.50;85.40;;;;;;4957974;28;20019;-74
2021/04/18 01:06:28;;;;;;;19.13;14.15;;;4.50;85.20;;;;;;4959244;28;20022;-75
2021/04/18 01:08:53;;;;;;;21.48;13.73;;;4.60;85.10;;;;;;4966529;28;20019;-75
2021/04/18 01:11:19;;;;;;;20.25;13.75;;;4.50;85.10;;;;;;4965949;28;20395;-76
2021/04/18 01:13:44;;;;;;;20.63;14.35;;;4.50;85.10;;;;;;4964125;28;20099;-77
2021/04/18 01:16:16;;;;;;;22.88;15.13;;;4.50;85.50;;;;;;4957586;28;20047;-76
2021/04/18 01:18:41;;;;;;;23.42;14.70;;;4.40;85.60;;;;;;4966514;28;20030;-76
2021/04/18 01:21:12;;;;;;;18.75;13.18;;;4.40;85.80;;;;;;4980069;28;20026;-76
2021/04/18 01:23:40;;;;;;;20.50;13.00;;;4.50;85.80;;;;;;4965211;28;20096;-76
2021/04/18 01:26:07;;;;;;;24.00;14.65;;;4.50;85.60;;;;;;4958220;28;20026;-76
2021/04/18 01:28:33;;;;;;;22.50;13.93;;;4.60;85.10;;;;;;4942263;28;20054;-75
2021/04/18 01:31:01;;;;;;;21.48;14.48;;;4.50;85.00;;;;;;4957866;28;20050;-75
2021/04/18 01:33:26;;;;;;;18.23;12.70;;;4.60;85.00;;;;;;4941668;28;20030;-76
2021/04/18 01:35:53;;;;;;;17.52;12.65;;;4.60;84.90;;;;;;4957411;28;20113;-75
2021/04/18 01:38:19;;;;;;;20.90;13.02;;;4.60;84.60;;;;;;4957538;28;20043;-75
2021/04/18 01:40:45;;;;;;;18.48;13.32;;;4.70;84.50;;;;;;4957376;28;20026;-76
2021/04/18 01:43:19;;;;;;;19.88;12.45;;;4.60;84.30;;;;;;4957435;28;20026;-76
2021/04/18 01:45:47;;;;;;;18.23;12.43;;;4.60;84.30;;;;;;4957515;28;20097;-77
2021/04/18 01:48:18;;;;;;;17.02;12.63;;;4.70;84.40;;;;;;4957347;28;20081;-76
2021/04/18 01:50:47;;;;;;;19.85;12.98;;;4.70;84.30;;;;;;4957339;28;20483;-76
2021/04/18 01:53:14;;;;;;;17.65;12.05;;;4.70;84.20;;;;;;4957198;28;20035;-76
2021/04/18 01:55:41;;;;;;;19.35;12.63;;;4.70;84.10;;;;;;4953742;29;20408;-76
2021/04/18 01:58:07;;;;;;;20.17;13.52;;;4.70;84.10;;;;;;4954066;29;20118;-77
2021/04/18 02:00:33;;;;;;;18.25;12.88;;;4.70;83.80;;;;;;4953736;28;20126;-76
2021/04/18 02:02:59;;;;;;;20.52;12.98;;;4.70;83.90;;;;;;4953957;29;20062;-76
2021/04/18 02:05:28;;;;;;;18.90;12.88;;;4.70;83.90;;;;;;4953714;29;20051;-77
2021/04/18 02:07:53;;;;;;;17.35;12.63;;;4.50;84.30;;;;;;4953630;29;20389;-76
2021/04/18 02:10:19;;;;;;;18.70;12.93;;;4.60;84.50;;;;;;4954910;28;20019;-76
2021/04/18 02:12:46;;;;;;;24.83;14.65;;;4.60;84.40;;;;;;4953757;29;20457;-77
2021/04/18 02:15:13;;;;;;;19.88;13.30;;;4.60;84.50;;;;;;4955002;29;20023;-76
2021/04/18 02:17:40;;;;;;;18.92;14.15;;;4.50;84.80;;;;;;4953255;29;20043;-76
2021/04/18 02:20:06;;;;;;;22.67;14.70;;;4.40;85.10;;;;;;4953734;29;20058;-76
2021/04/18 02:22:32;;;;;;;21.75;14.98;;;4.30;85.40;;;;;;4953527;29;20032;-77
2021/04/18 02:24:57;;;;;;;21.27;15.23;;;4.30;85.90;;;;;;4953721;29;20023;-77
2021/04/18 02:27:26;;;;;;;29.45;15.73;;;4.20;86.50;;;;;;4954717;29;20388;-77
2021/04/18 02:29:53;;;;;;;26.13;16.77;;;4.20;86.60;;;;;;4953544;29;20027;-77
2021/04/18 02:32:18;;;;;;;22.20;15.52;;;4.20;86.80;;;;;;4954879;29;20469;-75
2021/04/18 02:34:44;;;;;;;21.88;14.30;;;4.20;86.80;;;;;;4953436;29;20050;-76
2021/04/18 02:37:10;;;;;;;22.63;15.80;;;4.30;86.70;;;;;;4953157;29;20269;-76
2021/04/18 02:39:36;;;;;;;18.90;13.65;;;4.30;86.30;;;;;;4953292;29;20494;-76
2021/04/18 02:42:01;;;;;;;21.33;13.88;;;4.40;86.30;;;;;;4937315;29;20031;-75
2021/04/18 02:44:31;;;;;;;20.38;14.88;;;4.40;86.10;;;;;;4954407;28;20063;-76
2021/04/18 02:46:57;;;;;;;21.27;15.23;;;4.50;85.80;;;;;;4953376;29;20058;-76
2021/04/18 02:49:27;;;;;;;19.65;14.20;;;4.50;86.00;;;;;;4954671;29;20023;-76
2021/04/18 02:51:53;;;;;;;23.80;15.48;;;4.60;85.30;;;;;;4953291;29;20034;-76
2021/04/18 02:54:18;;;;;;;22.40;13.77;;;4.60;84.90;;;;;;4953082;29;20044;-76
2021/04/18 02:56:45;;;;;;;22.05;15.48;;;4.60;84.60;;;;;;4954371;28;20043;-77
2021/04/18 02:59:10;;;;;;;20.25;14.13;;;4.60;84.20;;;;;;4953255;29;20118;-77
2021/04/18 03:01:38;;;;;;;22.40;14.52;;;4.60;84.20;;;;;;4952982;29;20171;-76
2021/04/18 03:04:05;;;;;;;21.77;14.57;;;4.40;84.50;;;;;;4953324;29;20034;-77
2021/04/18 03:06:30;;;;;;;24.42;16.70;;;4.50;84.90;;;;;;4953217;29;20028;-76
2021/04/18 03:08:56;;;;;;;22.10;15.95;;;4.40;84.90;;;;;;4937425;29;20031;-76
2021/04/18 03:11:22;;;;;;;27.23;16.83;;;4.30;85.30;;;;;;4953043;28;20099;-76
2021/04/18 03:13:48;;;;;;;22.75;16.42;;;4.30;85.50;;;;;;4958134;28;20031;-76
2021/04/18 03:16:13;;;;;;;21.67;15.60;;;4.30;85.50;;;;;;4956876;29;20047;-77
2021/04/18 03:18:39;;;;;;;19.95;14.40;;;4.30;85.70;;;;;;4956640;29;20023;-76
2021/04/18 03:21:07;;;;;;;21.73;14.40;;;4.40;85.70;;;;;;4958809;29;20063;-76
2021/04/18 03:23:32;;;;;;;23.95;15.88;;;4.40;85.50;;;;;;4968202;29;20023;-76
2021/04/18 03:25:58;;;;;;;21.40;14.52;;;4.50;85.20;;;;;;4971034;29;20392;-76
2021/04/18 03:28:24;;;;;;;18.45;13.80;;;4.50;84.90;;;;;;4958572;29;20024;-76
2021/04/18 03:30:50;;;;;;;20.83;14.10;;;4.60;84.70;;;;;;4956654;29;20118;-76
2021/04/18 03:33:15;;;;;;;17.95;12.95;;;4.60;84.20;;;;;;4956720;29;20034;-77
2021/04/18 03:35:41;;;;;;;20.63;14.10;;;4.60;84.10;;;;;;4956373;29;20032;-77
2021/04/18 03:38:09;;;;;;;18.08;13.20;;;4.60;83.80;;;;;;4956720;29;20027;-77
2021/04/18 03:40:36;;;;;;;19.65;13.95;;;4.60;83.70;;;;;;4957753;29;20031;-77
2021/04/18 03:43:02;;;;;;;17.33;13.00;;;4.60;83.60;;;;;;4956593;29;20365;-77
2021/04/18 03:45:27;;;;;;;22.05;14.15;;;4.60;83.70;;;;;;4956428;29;20388;-78
2021/04/18 03:47:53;;;;;;;18.70;14.07;;;4.60;83.80;;;;;;4956416;29;20035;-77
2021/04/18 03:50:19;;;;;;;19.50;13.65;;;4.30;84.30;;;;;;4956161;29;20052;-77
2021/04/18 03:52:48;;;;;;;19.10;14.23;;;4.40;84.70;;;;;;4956371;29;20035;-77
2021/04/18 03:55:14;;;;;;;22.20;14.77;;;4.30;84.80;;;;;;4956147;29;20075;-77
2021/04/18 03:57:39;;;;;;;23.00;15.63;;;4.30;85.00;;;;;;4955992;29;20581;-77
2021/04/18 04:00:07;;;;;;;18.52;13.60;;;4.30;85.20;;;;;;4956127;29;20033;-77
2021/04/18 04:02:32;;;;;;;18.05;13.48;;;4.30;85.20;;;;;;4955936;29;20031;-77
2021/04/18 04:04:58;;;;;;;25.08;15.15;;;4.40;85.10;;;;;;4955866;29;20031;-77
2021/04/18 04:07:24;;;;;;;20.10;14.07;;;4.40;85.00;;;;;;4955892;29;20038;-76
2021/04/18 04:09:49;;;;;;;19.08;13.30;;;4.40;84.80;;;;;;4955669;29;20019;-76
2021/04/18 04:12:15;;;;;;;20.65;14.23;;;4.50;84.80;;;;;;4955940;29;20389;-76
2021/04/18 04:14:41;;;;;;;22.83;15.38;;;4.50;84.40;;;;;;4955631;29;20432;-76
2021/04/18 04:17:07;;;;;;;19.98;13.45;;;4.50;84.10;;;;;;4956818;29;20067;-76
2021/04/18 04:19:35;;;;;;;19.13;13.25;;;4.50;83.90;;;;;;4956894;28;20055;-76
2021/04/18 04:22:00;;;;;;;18.05;12.52;;;4.40;84.10;;;;;;4955490;29;20035;-76
2021/04/18 04:24:26;;;;;;;21.23;13.35;;;4.50;84.30;;;;;;4955303;28;20491;-78
2021/04/18 04:26:53;;;;;;;19.00;13.55;;;4.50;84.20;;;;;;4955459;29;20115;-77
2021/04/18 04:29:19;;;;;;;18.48;14.15;;;4.50;84.10;;;;;;4955253;29;20027;-77
2021/04/18 04:31:45;;;;;;;19.00;13.35;;;4.50;84.00;;;;;;4955200;29;20031;-78
2021/04/18 04:34:11;;;;;;;18.42;12.98;;;4.50;84.00;;;;;;4955324;29;20023;-79
2021/04/18 04:36:37;;;;;;;25.75;14.88;;;4.50;84.10;;;;;;4955059;29;20130;-78
2021/04/18 04:39:06;;;;;;;19.58;14.48;;;4.50;83.90;;;;;;4955225;29;20019;-76
2021/04/18 04:41:32;;;;;;;23.75;15.13;;;4.50;83.90;;;;;;4955078;29;20035;-76
2021/04/18 04:43:59;;;;;;;22.10;15.95;;;4.40;84.30;;;;;;4954889;29;20440;-76
2021/04/18 04:46:25;;;;;;;23.05;16.05;;;4.30;84.90;;;;;;4955044;29;20114;-76
2021/04/18 04:48:50;;;;;;;24.63;15.75;;;4.20;85.50;;;;;;4955080;29;20034;-75
2021/04/18 04:51:16;;;;;;;26.98;16.80;;;4.10;86.00;;;;;;4956180;29;20039;-76
2021/04/18 04:53:41;;;;;;;24.75;17.50;;;4.10;86.20;;;;;;4954637;28;20031;-77
2021/04/18 04:56:08;;;;;;;23.85;17.27;;;4.10;86.40;;;;;;4957722;28;20428;-76
2021/04/18 04:58:34;;;;;;;23.33;15.70;;;4.10;86.80;;;;;;4957955;28;20035;-75
2021/04/18 05:01:00;;;;;;;22.90;16.27;;;4.10;86.80;;;;;;4975316;28;20037;-75
2021/04/18 05:03:27;;;;;;;24.13;17.25;;;4.20;86.60;;;;;;4957654;28;20035;-75
2021/04/18 05:05:55;;;;;;;22.92;16.40;;;4.20;86.30;;;;;;4958064;28;20062;-75
2021/04/18 05:08:22;;;;;;;23.10;16.30;;;4.30;86.40;;;;;;4957577;28;20054;-75
2021/04/18 05:10:47;;;;;;;23.17;14.60;;;4.30;86.10;;;;;;4957772;28;20031;-75
2021/04/18 05:13:13;;;;;;;21.20;15.07;;;4.30;86.10;;;;;;4957743;28;20026;-75
2021/04/18 05:15:39;;;;;;;28.58;16.52;;;4.40;85.90;;;;;;4975108;28;20033;-75
2021/04/18 05:18:05;;;;;;;22.65;15.70;;;4.50;85.60;;;;;;4957648;28;20117;-75
2021/04/18 05:20:31;;;;;;;24.45;16.70;;;4.40;85.30;;;;;;4957385;28;20094;-75
2021/04/18 05:22:58;;;;;;;25.50;16.58;;;4.40;85.30;;;;;;4957922;28;20027;-75
2021/04/18 05:25:26;;;;;;;22.65;15.95;;;4.40;85.50;;;;;;4957683;28;20022;-77
2021/04/18 05:27:51;;;;;;;26.65;17.80;;;4.40;85.60;;;;;;4957815;28;20360;-77
2021/04/18 05:30:17;;;;;;;22.25;17.05;;;4.40;85.80;;;;;;4957357;28;20046;-74
2021/04/18 05:32:43;;;;;;;25.88;18.52;;;4.40;85.90;;;;;;4957140;28;20073;-77
2021/04/18 05:35:10;;;;;;;28.20;18.33;;;4.30;86.20;;;;;;4974518;28;20066;-77
2021/04/18 05:37:35;;;;;;;22.13;16.08;;;4.30;86.30;;;;;;4957382;28;20504;-74
2021/04/18 05:40:01;;;;;;;23.02;15.60;;;4.40;86.20;;;;;;4957308;28;20113;-75
2021/04/18 05:42:28;;;;;;;24.95;17.80;;;4.40;86.00;;;;;;4974800;28;20084;-78
2021/04/18 05:44:53;;;;;;;22.75;17.30;;;4.40;85.80;;;;;;4957428;28;20023;-75
2021/04/18 05:47:19;;;;;;;21.98;15.93;;;4.30;86.20;;;;;;4957034;28;20023;-75
2021/04/18 05:49:45;;;;;;;24.20;16.50;;;4.40;86.20;;;;;;4957025;28;20061;-75
2021/04/18 05:52:10;;;;;;;20.48;14.85;;;4.40;86.10;;;;;;4975094;28;20026;-77
2021/04/18 05:54:37;;;;;;;23.80;15.55;;;4.40;85.90;;;;;;4953739;29;20190;-76
2021/04/18 05:57:02;;;;;;;23.52;16.23;;;4.50;85.80;;;;;;4954073;29;20042;-76
2021/04/18 05:59:28;;;;;;;23.48;16.17;;;4.50;85.50;;;;;;4953590;29;20027;-76
2021/04/18 06:01:53;;;;;;;23.77;15.98;;;4.50;85.10;;;;;;4953636;29;20118;-76
2021/04/18 06:04:19;;;;;;;17.90;13.48;;;4.40;85.00;;;;;;4954835;28;20059;-77
2021/04/18 06:06:45;;;;;;;20.95;14.70;;;4.40;85.10;;;;;;4937983;29;20511;-78
2021/04/18 06:09:10;;;;;;;17.42;14.15;;;4.40;85.30;;;;;;4954780;29;20034;-77
2021/04/18 06:11:36;;;;;;;18.33;13.65;;;4.40;85.40;;;;;;4954643;28;20071;-77
2021/04/18 06:14:02;;;;;;;24.02;15.95;;;4.50;86.20;;;;;;4953299;29;20031;-76
2021/04/18 06:16:27;;;;;;;29.08;18.80;;;4.40;85.30;;;;;;4953346;29;20062;-78
2021/04/18 06:18:53;;;;;;;25.48;15.73;;;4.30;85.70;;;;;;4953436;29;20094;-78
2021/04/18 06:21:19;;;;;;;24.70;17.23;;;4.40;85.90;;;;;;4954757;29;20055;-78
2021/04/18 06:23:46;;;;;;;26.85;17.40;;;4.40;85.90;;;;;;4937331;29;20514;-76
2021/04/18 06:26:14;;;;;;;21.48;15.23;;;4.40;85.90;;;;;;4953478;29;20114;-77
2021/04/18 06:28:40;;;;;;;22.88;16.50;;;4.50;85.90;;;;;;4953179;29;20039;-77
2021/04/18 06:31:05;;;;;;;22.90;17.15;;;4.50;85.80;;;;;;4953282;29;20114;-78
2021/04/18 06:33:31;;;;;;;25.52;16.58;;;4.50;85.60;;;;;;4937318;29;20547;-78
2021/04/18 06:35:57;;;;;;;22.65;15.52;;;4.50;85.60;;;;;;4952831;29;20031;-77
2021/04/18 06:38:22;;;;;;;20.42;15.07;;;4.50;85.50;;;;;;4952817;29;20027;-77
2021/04/18 06:40:55;;;;;;;20.90;14.43;;;4.50;85.30;;;;;;4937672;29;20079;-78
2021/04/18 06:43:22;;;;;;;21.30;14.20;;;4.60;85.00;;;;;;4953198;29;20511;-78
2021/04/18 06:45:56;;;;;;;19.20;14.27;;;4.60;84.80;;;;;;4957106;28;20027;-78
2021/04/18 06:48:21;;;;;;;21.40;14.13;;;4.70;84.90;;;;;;4961773;29;20500;-76
2021/04/18 06:50:48;;;;;;;18.25;13.75;;;4.60;84.30;;;;;;4960491;29;20034;-78
2021/04/18 06:53:14;;;;;;;17.17;11.95;;;4.70;84.20;;;;;;4958505;28;20452;-78
2021/04/18 06:55:43;;;;;;;16.15;12.25;;;4.70;84.10;;;;;;4956928;29;20058;-77
2021/04/18 06:58:11;;;;;;;15.52;12.43;;;4.70;83.90;;;;;;4941048;29;20133;-76
2021/04/18 07:00:37;;;;;;;17.45;12.98;;;4.70;83.70;;;;;;4941379;29;20473;-76
2021/04/18 07:03:14;;;;;;;16.50;12.75;;;4.70;83.50;;;;;;4957132;29;20114;-77
2021/04/18 07:05:45;;;;;;;15.75;12.00;;;4.70;83.60;;;;;;4957764;29;20027;-77
2021/04/18 07:08:31;;;;;;;15.15;12.15;;;4.70;83.80;;;;;;4956778;29;20027;-79
2021/04/18 07:11:18;;;;;;;16.10;12.82;;;4.70;83.80;;;;;;4957870;29;20158;-77
2021/04/18 07:13:47;;;;;;;15.60;11.70;;;4.70;84.00;;;;;;4956621;29;20035;-77
2021/04/18 07:16:22;;;;;;;17.13;12.45;;;4.70;84.10;;;;;;4957832;28;20468;-78
2021/04/18 07:18:48;;;;;;;17.85;12.10;;;4.70;84.10;;;;;;4956903;29;20039;-78
2021/04/18 07:21:14;;;;;;;14.95;11.40;;;4.80;84.10;;;;;;4957946;29;20432;-77
2021/04/18 07:23:41;;;;;;;16.63;11.82;;;4.90;83.80;;;;;;4956545;29;20074;-77
2021/04/18 07:26:27;;;;;;;15.00;11.65;;;5.00;83.50;;;;;;4940116;29;20062;-78
2021/04/18 07:29:12;;;;;;;14.43;11.45;;;5.10;83.30;;;;;;4956871;29;20028;-77
2021/04/18 07:31:48;;;;;;;14.97;11.30;;;5.10;82.70;;;;;;4956707;29;20030;-79
2021/04/18 07:34:19;;;;;;;14.05;10.32;;;5.20;82.70;;;;;;4957227;29;20032;-78
2021/04/18 07:36:50;;;;;;;15.43;11.80;;;5.30;82.70;;;;;;4956345;29;20050;-78
2021/04/18 07:39:18;;;;;;;15.32;10.68;;;5.50;82.30;;;;;;4956413;29;20047;-77
2021/04/18 07:41:54;;;;;;;13.98;10.82;;;5.60;81.90;;;;;;4956261;29;20023;-79
2021/04/18 07:44:23;;;;;;;14.88;10.77;;;5.70;81.60;;;;;;4956219;29;20102;-78
2021/04/18 07:46:55;;;;;;;11.75;9.52;;;5.80;81.00;;;;;;4956354;29;20400;-78
2021/04/18 07:49:20;;;;;;;12.35;10.40;;;5.90;80.50;;;;;;4956061;29;20028;-78
2021/04/18 07:51:50;;;;;;;14.68;11.98;;;5.90;79.40;;;;;;4956275;29;20401;-77
2021/04/18 07:54:17;;;;;;;14.18;11.20;;;5.90;79.40;;;;;;4961448;28;20061;-77
2021/04/18 07:56:48;;;;;;;10.55;9.30;;;5.80;80.10;;;;;;4959599;28;20042;-79
2021/04/18 07:59:18;;;;;;;10.20;8.95;;;5.80;79.70;;;;;;4958453;28;20495;-78
2021/04/18 08:01:44;;;;;;;10.25;7.88;;;5.90;79.80;;;;;;4927646;28;20069;-77
2021/04/18 08:04:10;;;;;;;8.82;7.93;;;6.00;79.30;;;;;;4976325;28;20051;-79
2021/04/18 08:06:39;;;;;;;10.38;8.50;;;6.10;78.70;;;;;;4958917;28;20022;-78
2021/04/18 08:09:21;;;;;;;8.82;7.93;;;6.00;78.40;;;;;;4959199;28;20026;-78
2021/04/18 08:12:23;;;;;;;9.05;7.47;;;6.00;78.20;;;;;;4959077;28;20078;-79
2021/04/18 08:15:12;;;;;;;10.02;8.98;;;6.00;77.90;;;;;;4919526;29;20031;-78
2021/04/18 08:18:05;;;;;;;10.80;9.13;;;5.90;79.00;;;;;;4957244;28;20046;-79
2021/04/18 08:20:51;;;;;;;9.85;8.68;;;5.70;79.30;;;;;;4958196;28;20062;-78
2021/04/18 08:23:17;;;;;;;9.93;8.13;;;5.90;78.90;;;;;;4958244;28;20038;-78
2021/04/18 08:26:12;;;;;;;12.07;10.00;;;6.10;78.70;;;;;;4958970;28;20385;-77
2021/04/18 08:29:01;;;;;;;11.50;9.20;;;6.30;77.70;;;;;;4958387;28;20085;-80
2021/04/18 08:31:29;;;;;;;13.60;10.65;;;6.30;76.70;;;;;;4975779;28;20023;-77
2021/04/18 08:34:06;;;;;;;12.63;9.43;;;6.30;76.60;;;;;;4958705;28;20023;-75
2021/04/18 08:36:34;;;;;;;12.77;10.23;;;6.30;76.70;;;;;;4959019;28;20122;-76
2021/04/18 08:39:06;;;;;;;13.07;10.55;;;6.30;76.20;;;;;;4958139;28;20433;-74
2021/04/18 08:41:48;;;;;;;15.73;11.95;;;6.20;76.70;;;;;;4975627;28;20023;-75
2021/04/18 08:44:32;;;;;;;17.33;12.98;;;6.00;77.50;;;;;;4958400;28;20118;-75
2021/04/18 08:47:01;;;;;;;18.17;12.07;;;6.00;77.80;;;;;;4958141;28;20472;-74
2021/04/18 08:49:47;;;;;;;20.15;12.75;;;5.90;77.70;;;;;;4975445;28;20061;-80
2021/04/18 08:52:16;;;;;;;15.60;12.38;;;5.90;78.00;;;;;;4975427;28;20031;-77
2021/04/18 08:54:45;;;;;;;14.57;11.90;;;5.80;78.20;;;;;;4957947;28;20043;-77
2021/04/18 08:57:16;;;;;;;16.20;11.43;;;5.80;77.80;;;;;;4957843;28;20558;-77
2021/04/18 08:59:46;;;;;;;16.20;11.48;;;5.80;76.90;;;;;;4957909;28;20039;-79
2021/04/18 09:02:13;;;;;;;13.57;10.45;;;6.00;76.70;;;;;;4975445;28;20035;-79
2021/04/18 09:04:42;;;;;;;13.52;10.23;;;5.90;76.50;;;;;;4958013;28;20060;-78
2021/04/18 09:07:11;;;;;;;13.75;10.55;;;6.00;76.50;;;;;;4975469;28;20031;-81
2021/04/18 09:09:37;;;;;;;17.80;12.45;;;6.10;76.40;;;;;;4941014;28;20057;-78
2021/04/18 09:12:04;;;;;;;16.85;12.68;;;6.30;76.10;;;;;;4957591;28;20058;-74
2021/04/18 09:14:32;;;;;;;15.93;11.93;;;6.40;75.60;;;;;;4957550;28;20049;-73
2021/04/18 09:17:16;;;;;;;14.52;10.95;;;6.50;75.60;;;;;;4957775;28;20496;-74
2021/04/18 09:19:46;;;;;;;14.10;10.10;;;6.60;75.10;;;;;;4957711;28;20535;-74
2021/04/18 09:22:18;;;;;;;14.85;10.30;;;6.70;74.20;;;;;;4957717;28;20054;-77
2021/04/18 09:24:54;;;;;;;10.73;8.73;;;6.80;73.60;;;;;;4974938;28;20045;-77
2021/04/18 09:27:26;;;;;;;13.93;10.60;;;6.80;72.10;;;;;;4957275;28;20122;-76
2021/04/18 09:30:08;;;;;;;13.13;9.93;;;6.80;72.30;;;;;;4974886;28;20019;-78
2021/04/18 09:32:42;;;;;;;11.13;9.18;;;6.90;72.70;;;;;;4957471;28;20058;-77
2021/04/18 09:35:10;;;;;;;9.45;7.50;;;7.00;72.00;;;;;;4957261;28;20023;-77
2021/04/18 09:37:38;;;;;;;10.35;7.93;;;7.20;71.50;;;;;;4962799;28;20046;-76
2021/04/18 09:40:08;;;;;;;13.18;8.77;;;7.20;70.50;;;;;;4967483;28;20054;-72
2021/04/18 09:42:36;;;;;;;11.00;8.70;;;7.20;70.70;;;;;;4966582;28;20027;-76
2021/04/18 09:45:22;;;;;;;9.50;7.60;;;7.20;71.50;;;;;;4966013;28;20030;-76
2021/04/18 09:47:51;;;;;;;11.40;8.60;;;7.40;71.10;;;;;;4972855;28;20533;-75
2021/04/18 09:50:22;;;;;;;10.82;8.45;;;7.50;70.60;;;;;;4960706;28;20034;-76
2021/04/18 09:52:49;;;;;;;10.50;8.55;;;7.70;69.60;;;;;;4993983;28;20042;-76
2021/04/18 09:55:24;;;;;;;9.27;7.38;;;7.70;69.30;;;;;;4975992;28;20042;-77
2021/04/18 09:57:58;;;;;;;11.07;6.25;;;7.80;69.10;;;;;;4976490;28;20399;-76
2021/04/18 10:00:33;;;;;;;9.57;7.45;;;7.90;68.90;;;;;;4971971;28;20050;-76
2021/04/18 10:03:11;;;;;;;9.40;7.85;;;8.00;68.20;;;;;;4976389;28;20026;-76
2021/04/18 10:05:57;;;;;;;17.42;7.13;;;8.00;67.30;;;;;;4976316;28;20031;-73
2021/04/18 10:08:34;;;;;;;12.98;7.95;;;8.20;71.50;;;;;;4960199;28;20057;-75
2021/04/18 10:11:06;;;;;;;13.35;7.65;;;8.40;73.60;;;;;;4976247;28;20093;-73
2021/04/18 10:13:49;;;;;;;9.73;7.60;;;8.80;74.00;;;;;;4976353;28;20467;-74
2021/04/18 10:16:16;;;;;;;10.30;7.88;;;8.90;68.70;;;;;;4976328;28;20036;-75
2021/04/18 10:19:03;;;;;;;12.00;9.07;;;8.90;65.90;;;;;;4975989;28;20487;-77
2021/04/18 10:21:28;;;;;;;12.35;7.82;;;8.90;65.70;;;;;;4975244;28;20060;-76
2021/04/18 10:23:55;;;;;;;10.07;7.82;;;8.90;65.00;;;;;;4993255;28;20539;-78
2021/04/18 10:26:22;;;;;;;11.02;7.95;;;9.00;64.20;;;;;;4975847;28;20296;-79
2021/04/18 10:28:51;;;;;;;11.00;7.97;;;9.00;63.70;;;;;;4975807;28;20082;-80
2021/04/18 10:31:21;;;;;;;9.95;7.97;;;8.90;62.90;;;;;;4993449;28;20073;-79
2021/04/18 10:33:48;;;;;;;10.98;8.00;;;8.60;63.30;;;;;;4975785;28;20027;-82
2021/04/18 10:36:16;;;;;;;9.52;7.05;;;8.20;63.90;;;;;;4975760;28;20113;-78
2021/04/18 10:38:42;;;;;;;9.50;7.53;;;8.20;64.60;;;;;;4993214;28;20042;-79
2021/04/18 10:41:09;;;;;;;9.38;7.93;;;8.30;65.10;;;;;;4960507;28;20126;-76
2021/04/18 10:43:35;;;;;;;12.20;9.48;;;8.50;65.20;;;;;;4975986;28;20053;-80
2021/04/18 10:46:01;;;;;;;11.63;8.75;;;8.30;64.80;;;;;;4975913;28;20088;-77
2021/04/18 10:48:27;;;;;;;10.77;8.35;;;8.30;64.90;;;;;;4993247;28;20041;-77
2021/04/18 10:50:53;;;;;;;10.80;8.13;;;8.10;64.30;;;;;;5006295;28;20026;-77
2021/04/18 10:53:20;;;;;;;15.43;10.65;;;8.00;64.70;;;;;;4995850;28;20062;-78
2021/04/18 10:55:46;;;;;;;12.73;9.50;;;8.10;65.60;;;;;;4979961;28;20042;-79
2021/04/18 10:58:16;;;;;;;17.08;11.73;;;8.20;66.20;;;;;;4975827;28;20034;-81
2021/04/18 11:00:43;;;;;;;14.85;10.60;;;8.20;67.20;;;;;;4975781;28;20023;-78
2021/04/18 11:03:10;;;;;;;13.30;10.45;;;8.30;67.70;;;;;;4975796;28;20153;-79
2021/04/18 11:05:37;;;;;;;14.80;10.57;;;8.20;68.30;;;;;;4975555;28;20057;-79
2021/04/18 11:08:02;;;;;;;18.50;11.25;;;8.20;68.40;;;;;;4992938;28;20026;-78
2021/04/18 11:10:28;;;;;;;16.02;11.43;;;8.20;68.60;;;;;;4975133;28;20026;-79
2021/04/18 11:12:54;;;;;;;17.38;11.95;;;8.30;69.00;;;;;;4975262;28;20032;-79
2021/04/18 11:15:19;;;;;;;27.80;17.13;;;8.50;69.40;;;;;;4959451;28;20030;-79
2021/04/18 11:17:46;;;;;;;14.05;11.00;;;8.60;69.30;;;;;;4967308;28;20042;-78
2021/04/18 11:20:14;;;;;;;21.10;13.88;;;8.90;68.30;;;;;;4968835;28;20026;-79
2021/04/18 11:22:42;;;;;;;17.58;11.70;;;9.00;66.70;;;;;;4959035;28;20035;-79
2021/04/18 11:25:11;;;;;;;22.13;13.38;;;9.20;66.20;;;;;;4975226;28;20165;-79
2021/04/18 11:27:38;;;;;;;15.50;10.57;;;9.30;65.00;;;;;;4975175;28;20027;-79
2021/04/18 11:30:11;;;;;;;12.43;8.70;;;9.50;64.60;;;;;;4975296;28;20101;-78
2021/04/18 11:32:37;;;;;;;16.27;10.57;;;9.70;61.80;;;;;;4975042;28;20398;-78
2021/04/18 11:35:04;;;;;;;11.23;8.25;;;9.80;59.20;;;;;;4978691;28;20022;-79
2021/04/18 11:37:30;;;;;;;10.90;8.52;;;9.70;58.10;;;;;;4978686;28;20043;-78
2021/04/18 11:40:00;;;;;;;12.93;9.25;;;9.70;58.90;;;;;;4978634;28;20463;-77
2021/04/18 11:42:25;;;;;;;14.77;11.27;;;9.80;59.10;;;;;;4979201;28;20081;-79
2021/04/18 11:44:52;;;;;;;17.83;12.43;;;10.00;59.00;;;;;;4946687;28;20483;-78
2021/04/18 11:47:20;;;;;;;13.07;10.35;;;10.20;58.80;;;;;;4978513;28;20033;-79
2021/04/18 11:49:47;;;;;;;15.35;10.35;;;10.00;57.70;;;;;;4978603;28;20105;-78
2021/04/18 11:52:15;;;;;;;15.65;9.98;;;9.70;58.40;;;;;;4979322;28;20031;-79
2021/04/18 11:54:42;;;;;;;14.77;10.52;;;9.70;58.50;;;;;;4962602;28;20046;-77
2021/04/18 11:57:10;;;;;;;17.40;12.07;;;9.60;58.40;;;;;;4978590;28;20058;-78
2021/04/18 11:59:37;;;;;;;14.13;10.52;;;9.50;59.20;;;;;;4978363;28;20464;-78
2021/04/18 12:02:03;;;;;;;17.38;12.23;;;9.20;60.20;;;;;;4962583;28;20034;-80
2021/04/18 12:04:29;;;;;;;15.07;11.45;;;8.90;61.80;;;;;;4995923;28;20058;-80
2021/04/18 12:06:55;;;;;;;19.55;12.95;;;8.60;63.40;;;;;;4996020;28;20088;-79
2021/04/18 12:09:21;;;;;;;21.35;15.70;;;8.40;64.60;;;;;;4978251;28;20142;-78
2021/04/18 12:11:47;;;;;;;20.17;14.02;;;8.20;65.20;;;;;;4978083;28;20027;-79
2021/04/18 12:14:12;;;;;;;18.77;11.98;;;8.10;66.10;;;;;;4977982;28;20023;-80
2021/04/18 12:16:38;;;;;;;17.42;12.65;;;7.90;66.60;;;;;;4978459;28;20043;-79
2021/04/18 12:19:04;;;;;;;22.52;14.05;;;7.90;66.90;;;;;;4978344;28;20034;-79
2021/04/18 12:21:33;;;;;;;22.13;14.02;;;7.80;67.10;;;;;;4978129;28;20071;-79
2021/04/18 12:23:59;;;;;;;20.73;13.18;;;7.80;67.50;;;;;;4968780;28;20428;-78
2021/04/18 12:26:24;;;;;;;20.10;12.93;;;7.90;68.80;;;;;;4974788;28;20158;-77
2021/04/18 12:28:52;;;;;;;19.15;12.55;;;7.90;68.40;;;;;;4977929;28;20031;-81
2021/04/18 12:31:19;;;;;;;17.63;11.40;;;8.00;68.10;;;;;;4978607;28;20034;-78
2021/04/18 12:33:46;;;;;;;20.63;12.95;;;8.10;68.00;;;;;;4977830;28;20493;-77
2021/04/18 12:36:13;;;;;;;19.45;12.20;;;8.10;67.40;;;;;;4977892;28;20026;-77
2021/04/18 12:38:39;;;;;;;21.70;14.02;;;8.20;67.20;;;;;;4977644;28;20049;-76
2021/04/18 12:41:05;;;;;;;21.20;12.73;;;8.30;66.80;;;;;;4978309;28;20050;-78
2021/04/18 12:43:32;;;;;;;22.10;13.40;;;8.40;66.60;;;;;;4971863;28;20103;-77